Time,TemperatureF,DewpointF,PressureIn,WindDirection,WindDirectionDegrees,WindSpeedMPH,WindSpeedGustMPH,Humidity,HourlyPrecipIn,Conditions,Clouds,dailyrainin,SoftwareType,DateUTC
2013-05-23 00:15:00,65.5,-37.5,29.75,SE,135,0.0,-999.0,1,-99.99,,,0.00,Acu-Link.com,2013-05-23 04:15:00,
2013-05-23 00:30:00,65.7,-37.4,29.74,North,0,0.0,-999.0,1,-99.99,,,0.00,Acu-Link.com,2013-05-23 04:30:00,
2013-05-23 00:45:00,65.8,-37.3,29.74,SSE,157,0.0,-999.0,1,-99.99,,,0.00,Acu-Link.com,2013-05-23 04:45:00,
2013-05-23 01:00:00,66.0,-37.2,29.75,SSE,157,0.0,-999.0,1,-99.99,,,0.00,Acu-Link.com,2013-05-23 05:00:00,
2013-05-23 01:16:00,66.4,-37.0,29.76,East,90,0.0,-999.0,1,-99.99,,,0.00,Acu-Link.com,2013-05-23 05:16:00,
2013-05-23 01:31:00,66.6,-36.9,29.76,South,180,0.0,-999.0,1,-99.99,,,0.00,Acu-Link.com,2013-05-23 05:31:00,
2013-05-23 01:46:00,66.2,-37.1,29.75,ENE,67,0.0,-999.0,1,-99.99,,,0.00,Acu-Link.com,2013-05-23 05:46:00,
2013-05-23 02:01:00,66.0,-37.2,29.74,SE,135,0.0,-999.0,1,-99.99,,,0.00,Acu-Link.com,2013-05-23 06:01:00,
2013-05-23 02:17:00,66.0,-37.2,29.73,NNW,337,0.0,-999.0,1,-99.99,,,0.00,Acu-Link.com,2013-05-23 06:17:00,
2013-05-23 02:32:00,66.0,-37.2,29.73,SSW,202,0.0,-999.0,1,-99.99,,,0.00,Acu-Link.com,2013-05-23 06:32:00,
2013-05-23 02:47:00,66.0,-37.2,29.73,SE,135,0.0,-999.0,1,-99.99,,,0.00,Acu-Link.com,2013-05-23 06:47:00,
2013-05-23 03:03:00,66.7,-36.8,29.73,South,180,0.0,-999.0,1,-99.99,,,0.00,Acu-Link.com,2013-05-23 07:03:00,
2013-05-23 03:18:00,67.1,-36.6,29.72,SW,225,0.0,-999.0,1,-99.99,,,0.00,Acu-Link.com,2013-05-23 07:18:00,
2013-05-23 03:33:00,67.5,-36.3,29.74,South,180,0.0,-999.0,1,-99.99,,,0.00,Acu-Link.com,2013-05-23 07:33:00,
2013-05-23 03:49:00,66.9,-36.7,29.72,East,90,0.0,-999.0,1,-99.99,,,0.00,Acu-Link.com,2013-05-23 07:49:00,
2013-05-23 04:04:00,66.9,-36.7,29.74,South,180,0.0,-999.0,1,-99.99,,,0.00,Acu-Link.com,2013-05-23 08:04:00,
2013-05-23 04:19:00,66.9,-36.7,29.73,SSE,157,0.0,-999.0,1,-99.99,,,0.00,Acu-Link.com,2013-05-23 08:19:00,
2013-05-23 04:34:00,66.7,-36.8,29.75,SSE,157,0.0,-999.0,1,-99.99,,,0.00,Acu-Link.com,2013-05-23 08:34:00,
2013-05-23 04:49:00,66.6,-36.9,29.74,SW,225,0.0,-999.0,1,-99.99,,,0.00,Acu-Link.com,2013-05-23 08:49:00,
2013-05-23 05:04:00,66.6,-36.9,29.72,South,180,0.0,-999.0,1,-99.99,,,0.00,Acu-Link.com,2013-05-23 09:04:00,
2013-05-23 05:20:00,66.6,-36.9,29.73,SSE,157,0.0,-999.0,1,-99.99,,,0.00,Acu-Link.com,2013-05-23 09:20:00,
2013-05-23 05:35:00,66.6,-36.9,29.72,SSW,202,0.0,-999.0,1,-99.99,,,0.00,Acu-Link.com,2013-05-23 09:35:00,
2013-05-23 05:50:00,66.4,-37.0,29.74,SW,225,0.0,-999.0,1,-99.99,,,0.00,Acu-Link.com,2013-05-23 09:50:00,
2013-05-23 06:05:00,66.6,-36.9,29.74,South,180,0.0,-999.0,1,-99.99,,,0.00,Acu-Link.com,2013-05-23 10:05:00,
2013-05-23 06:20:00,66.7,-36.8,29.75,SE,135,0.0,-999.0,1,-99.99,,,0.00,Acu-Link.com,2013-05-23 10:20:00,
2013-05-23 06:36:00,67.3,-36.4,29.76,SE,135,0.0,-999.0,1,-99.99,,,0.00,Acu-Link.com,2013-05-23 10:36:00,
2013-05-23 06:51:00,67.5,-36.3,29.75,SSE,157,0.0,-999.0,1,-99.99,,,0.00,Acu-Link.com,2013-05-23 10:51:00,
2013-05-23 07:06:00,67.5,-36.3,29.74,SSE,157,0.0,-999.0,1,-99.99,,,0.00,Acu-Link.com,2013-05-23 11:06:00,
2013-05-23 07:22:00,67.5,-36.3,29.75,West,270,0.0,-999.0,1,-99.99,,,0.00,Acu-Link.com,2013-05-23 11:22:00,
2013-05-23 07:37:00,67.6,-36.3,29.75,SSW,202,0.0,-999.0,1,-99.99,,,0.00,Acu-Link.com,2013-05-23 11:37:00,
2013-05-23 07:52:00,67.6,-36.3,29.77,SW,225,0.0,-999.0,1,-99.99,,,0.00,Acu-Link.com,2013-05-23 11:52:00,
2013-05-23 08:07:00,68.0,-36.0,29.76,WSW,247,0.0,-999.0,1,-99.99,,,0.00,Acu-Link.com,2013-05-23 12:07:00,
2013-05-23 08:23:00,68.4,-35.8,29.74,SSE,157,0.0,-999.0,1,-99.99,,,0.00,Acu-Link.com,2013-05-23 12:23:00,
2013-05-23 08:38:00,69.3,-35.2,29.76,SSE,157,0.0,-999.0,1,-99.99,,,0.00,Acu-Link.com,2013-05-23 12:38:00,
2013-05-23 08:53:00,69.6,-35.1,29.77,SW,225,0.0,-999.0,1,-99.99,,,0.00,Acu-Link.com,2013-05-23 12:53:00,
2013-05-23 09:09:00,70.0,-34.8,29.77,SW,225,0.0,-999.0,1,-99.99,,,0.00,Acu-Link.com,2013-05-23 13:09:00,
2013-05-23 09:24:00,70.3,-34.6,29.76,SSE,157,0.0,-999.0,1,-99.99,,,0.00,Acu-Link.com,2013-05-23 13:24:00,
2013-05-23 09:39:00,70.7,-34.4,29.76,South,180,0.0,-999.0,1,-99.99,,,0.00,Acu-Link.com,2013-05-23 13:39:00,
2013-05-23 09:54:00,70.5,-34.5,29.78,West,270,0.0,-999.0,1,-99.99,,,0.00,Acu-Link.com,2013-05-23 13:54:00,
2013-05-23 10:09:00,70.5,-34.5,29.77,SSE,157,0.0,-999.0,1,-99.99,,,0.00,Acu-Link.com,2013-05-23 14:09:00,
2013-05-23 10:25:00,72.0,-33.6,29.75,South,180,0.0,-999.0,1,-99.99,,,0.00,Acu-Link.com,2013-05-23 14:25:00,
2013-05-23 10:40:00,72.1,-33.6,29.76,South,180,0.0,-999.0,1,-99.99,,,0.00,Acu-Link.com,2013-05-23 14:40:00,
2013-05-23 10:55:00,72.5,-33.3,29.78,West,270,1.1,-999.0,1,-99.99,,,0.00,Acu-Link.com,2013-05-23 14:55:00,
2013-05-23 11:10:00,72.5,-33.3,29.78,SSW,202,0.0,-999.0,1,-99.99,,,0.00,Acu-Link.com,2013-05-23 15:10:00,
2013-05-23 11:26:00,72.5,-33.3,29.76,South,180,0.0,-999.0,1,-99.99,,,0.00,Acu-Link.com,2013-05-23 15:26:00,
2013-05-23 11:41:00,73.0,-33.0,29.77,SSE,157,1.7,-999.0,1,-99.99,,,0.00,Acu-Link.com,2013-05-23 15:41:00,
2013-05-23 11:56:00,75.4,-31.6,29.75,SSW,202,0.0,-999.0,1,-99.99,,,0.00,Acu-Link.com,2013-05-23 15:56:00,
2013-05-23 12:12:00,74.7,47.4,29.76,SSW,202,1.7,-999.0,38,-99.99,,,0.00,Acu-Link.com,2013-05-23 16:12:00,
2013-05-23 12:27:00,76.6,58.2,29.74,SSW,202,1.1,-999.0,53,-99.99,,,0.00,Acu-Link.com,2013-05-23 16:27:00,
2013-05-23 12:42:00,76.8,68.3,29.75,SSE,157,0.0,-999.0,75,-99.99,,,0.00,Acu-Link.com,2013-05-23 16:42:00,
2013-05-23 12:58:00,74.7,73.5,29.75,SW,225,1.7,-999.0,96,-99.99,,,0.00,Acu-Link.com,2013-05-23 16:58:00,
2013-05-23 13:13:00,73.9,73.3,29.72,ESE,112,0.0,-999.0,98,-99.99,,,0.00,Acu-Link.com,2013-05-23 17:13:00,
2013-05-23 13:28:00,73.0,72.4,29.73,ESE,112,4.2,-999.0,98,-99.99,,,0.00,Acu-Link.com,2013-05-23 17:28:00,
2013-05-23 13:43:00,72.7,67.2,29.74,East,90,0.0,-999.0,83,-99.99,,,0.00,Acu-Link.com,2013-05-23 17:43:00,
2013-05-23 13:59:00,71.8,60.2,29.72,NE,45,0.0,-999.0,67,-99.99,,,0.00,Acu-Link.com,2013-05-23 17:59:00,
2013-05-23 14:14:00,68.7,-35.6,29.75,South,180,2.7,-999.0,1,-99.99,,,0.66,Acu-Link.com,2013-05-23 18:14:00,
2013-05-23 14:29:00,69.8,-34.9,29.74,SSE,157,0.0,-999.0,1,-99.99,,,0.90,Acu-Link.com,2013-05-23 18:29:00,
2013-05-23 14:45:00,70.0,-34.8,29.72,NE,45,0.0,-999.0,1,-99.99,,,0.91,Acu-Link.com,2013-05-23 18:45:00,
2013-05-23 15:00:00,71.6,-33.9,29.74,ESE,112,0.0,-999.0,1,-99.99,,,1.30,Acu-Link.com,2013-05-23 19:00:00,
2013-05-23 15:15:00,71.6,-33.9,29.72,SW,225,0.0,-999.0,1,-99.99,,,1.30,Acu-Link.com,2013-05-23 19:15:00,
2013-05-23 15:31:00,70.9,-34.3,29.73,SE,135,0.0,-999.0,1,-99.99,,,1.30,Acu-Link.com,2013-05-23 19:31:00,
2013-05-23 15:46:00,70.7,-34.4,29.73,North,0,0.0,-999.0,1,-99.99,,,1.30,Acu-Link.com,2013-05-23 19:46:00,
2013-05-23 16:01:00,70.7,-34.4,29.72,ESE,112,0.0,-999.0,1,-99.99,,,1.41,Acu-Link.com,2013-05-23 20:01:00,
2013-05-23 16:16:00,70.9,-34.3,29.71,East,90,0.0,-999.0,1,-99.99,,,1.93,Acu-Link.com,2013-05-23 20:16:00,
2013-05-23 16:32:00,71.1,-34.2,29.71,SSW,202,0.0,-999.0,1,-99.99,,,1.99,Acu-Link.com,2013-05-23 20:32:00,
2013-05-23 16:47:00,70.9,-34.3,29.71,SW,225,0.0,-999.0,1,-99.99,,,2.00,Acu-Link.com,2013-05-23 20:47:00,
2013-05-23 17:02:00,70.5,-34.5,29.73,SW,225,0.0,-999.0,1,-99.99,,,2.04,Acu-Link.com,2013-05-23 21:02:00,
2013-05-23 17:18:00,69.8,-34.9,29.71,ESE,112,0.0,-999.0,1,-99.99,,,2.12,Acu-Link.com,2013-05-23 21:18:00,
2013-05-23 17:33:00,69.8,-34.9,29.72,SSW,202,0.0,-999.0,1,-99.99,,,2.14,Acu-Link.com,2013-05-23 21:33:00,
2013-05-23 17:48:00,69.6,-35.1,29.72,WSW,247,0.0,-999.0,1,-99.99,,,2.15,Acu-Link.com,2013-05-23 21:48:00,
2013-05-23 18:04:00,70.3,-34.6,29.71,SSE,157,0.0,-999.0,1,-99.99,,,2.15,Acu-Link.com,2013-05-23 22:04:00,
2013-05-23 18:19:00,70.2,-34.7,29.72,SSE,157,0.0,-999.0,1,-99.99,,,2.15,Acu-Link.com,2013-05-23 22:19:00,
2013-05-23 18:34:00,69.8,-34.9,29.73,South,180,0.0,-999.0,1,-99.99,,,2.15,Acu-Link.com,2013-05-23 22:34:00,
2013-05-23 18:49:00,69.4,-35.2,29.70,East,90,0.0,-999.0,1,-99.99,,,2.15,Acu-Link.com,2013-05-23 22:49:00,
2013-05-23 19:05:00,69.4,-35.2,29.70,East,90,0.0,-999.0,1,-99.99,,,2.15,Acu-Link.com,2013-05-23 23:05:00,
2013-05-23 19:20:00,69.1,-35.4,29.72,SE,135,0.0,-999.0,1,-99.99,,,2.16,Acu-Link.com,2013-05-23 23:20:00,
2013-05-23 19:35:00,69.4,-35.2,29.72,SSE,157,0.0,-999.0,1,-99.99,,,2.18,Acu-Link.com,2013-05-23 23:35:00,
2013-05-23 19:51:00,69.1,-35.4,29.71,SSW,202,0.0,-999.0,1,-99.99,,,2.28,Acu-Link.com,2013-05-23 23:51:00,
2013-05-23 20:06:00,69.1,-35.4,29.72,South,180,1.1,-999.0,1,-99.99,,,2.28,Acu-Link.com,2013-05-24 00:06:00,
2013-05-23 20:21:00,68.9,-35.5,29.70,WSW,247,0.0,-999.0,1,-99.99,,,2.28,Acu-Link.com,2013-05-24 00:21:00,
2013-05-23 20:37:00,68.7,-35.6,29.70,SSE,157,0.0,-999.0,1,-99.99,,,2.30,Acu-Link.com,2013-05-24 00:37:00,
2013-05-23 20:52:00,68.5,-35.7,29.70,SW,225,0.0,-999.0,1,-99.99,,,2.31,Acu-Link.com,2013-05-24 00:52:00,
2013-05-23 21:07:00,68.5,-35.7,29.69,SE,135,0.0,-999.0,1,-99.99,,,2.33,Acu-Link.com,2013-05-24 01:07:00,
2013-05-23 21:22:00,68.5,-35.7,29.70,SSW,202,0.0,-999.0,1,-99.99,,,2.38,Acu-Link.com,2013-05-24 01:22:00,
2013-05-23 21:38:00,68.4,-35.8,29.70,West,270,0.0,-999.0,1,-99.99,,,2.38,Acu-Link.com,2013-05-24 01:38:00,
2013-05-23 21:53:00,68.4,-35.8,29.70,SW,225,0.0,-999.0,1,-99.99,,,2.38,Acu-Link.com,2013-05-24 01:53:00,
2013-05-23 22:08:00,68.4,-35.8,29.66,SSW,202,5.8,-999.0,1,-99.99,,,2.38,Acu-Link.com,2013-05-24 02:08:00,
2013-05-23 22:24:00,68.2,-35.9,29.69,NW,315,2.7,-999.0,1,-99.99,,,2.38,Acu-Link.com,2013-05-24 02:24:00,
2013-05-23 22:39:00,68.2,-35.9,29.67,South,180,3.2,-999.0,1,-99.99,,,2.38,Acu-Link.com,2013-05-24 02:39:00,
2013-05-23 22:54:00,68.4,-35.8,29.66,SW,225,1.7,-999.0,1,-99.99,,,2.38,Acu-Link.com,2013-05-24 02:54:00,
2013-05-23 23:09:00,68.5,-35.7,29.66,ESE,112,3.2,-999.0,1,-99.99,,,2.38,Acu-Link.com,2013-05-24 03:09:00,
2013-05-23 23:25:00,68.5,-35.7,29.66,NW,315,2.2,-999.0,1,-99.99,,,2.38,Acu-Link.com,2013-05-24 03:25:00,
2013-05-23 23:40:00,68.5,-35.7,29.64,SW,225,2.2,-999.0,1,-99.99,,,2.41,Acu-Link.com,2013-05-24 03:40:00,
2013-05-23 23:55:00,68.4,-35.8,29.64,WSW,247,1.1,-999.0,1,-99.99,,,2.44,Acu-Link.com,2013-05-24 03:55:00,